Time;durP1;ratioP1;P1;durP2;ratioP2;P2;SDS_P1;SDS_P2;PMS_P1;PMS_P2;Temp;Humidity;BMP_temperature;BMP_pressure;BME280_temperature;BME280_humidity;BME280_pressure;Samples;Min_cycle;Max_cycle;Signal;HPM_P1;HPM_P2
2022/01/07 00:00:39;;;;;;;6.30;1.98;;;;;;;;;;5032874;28;20034;-74
2022/01/07 00:03:06;;;;;;;3.30;1.80;;;;;;;;;;5031739;28;20021;-74
2022/01/07 00:05:32;;;;;;;4.35;1.92;;;;;;;;;;5034863;28;20029;-74
2022/01/07 00:07:59;;;;;;;4.07;1.90;;;;;;;;;;5046674;28;20025;-74
2022/01/07 00:10:25;;;;;;;3.05;1.60;;;;;;;;;;5032859;28;20560;-74
2022/01/07 00:12:52;;;;;;;3.75;1.50;;;;;;;;;;5032818;28;20059;-74
2022/01/07 00:15:18;;;;;;;3.53;1.73;;;;;;;;;;5033051;28;20057;-74
2022/01/07 00:17:45;;;;;;;4.22;1.90;;;;;;;;;;5032697;28;20017;-74
2022/01/07 00:20:11;;;;;;;3.38;1.63;;;;;;;;;;5032855;28;20036;-73
2022/01/07 00:22:38;;;;;;;3.90;2.00;;;;;;;;;;5032603;28;20017;-73
2022/01/07 00:25:05;;;;;;;3.10;1.85;;;;;;;;;;5032545;28;20034;-74
2022/01/07 00:27:31;;;;;;;3.40;1.60;;;;;;;;;;5032219;28;20029;-74
2022/01/07 00:29:57;;;;;;;2.90;1.90;;;;;;;;;;5032508;28;20032;-74
2022/01/07 00:32:23;;;;;;;3.85;1.88;;;;;;;;;;5032397;28;20032;-74
2022/01/07 00:34:50;;;;;;;2.72;1.58;;;;;;;;;;5032288;28;20056;-74
2022/01/07 00:37:16;;;;;;;3.08;1.35;;;;;;;;;;5032495;28;20027;-74
2022/01/07 00:39:42;;;;;;;4.68;1.77;;;;;;;;;;5066047;28;20165;-74
2022/01/07 00:42:08;;;;;;;2.60;1.48;;;;;;;;;;5057749;28;20032;-74
2022/01/07 00:44:34;;;;;;;3.95;1.92;;;;;;;;;;5052235;28;20021;-74
2022/01/07 00:47:00;;;;;;;3.08;1.30;;;;;;;;;;5046584;28;20555;-74
2022/01/07 00:49:26;;;;;;;3.55;1.73;;;;;;;;;;5033059;28;20029;-74
2022/01/07 00:51:52;;;;;;;2.53;1.45;;;;;;;;;;5052035;28;20021;-74
2022/01/07 00:54:20;;;;;;;4.00;1.77;;;;;;;;;;5050845;28;20033;-73
2022/01/07 00:56:46;;;;;;;2.72;1.70;;;;;;;;;;5051860;28;20412;-73
2022/01/07 00:59:12;;;;;;;5.35;1.75;;;;;;;;;;5051846;28;20107;-73
2022/01/07 01:01:38;;;;;;;3.92;1.70;;;;;;;;;;5052105;28;20074;-73
2022/01/07 01:04:04;;;;;;;5.32;1.52;;;;;;;;;;5052114;28;20476;-73
2022/01/07 01:06:30;;;;;;;3.25;1.90;;;;;;;;;;5050799;28;20028;-74
2022/01/07 01:08:56;;;;;;;3.22;1.55;;;;;;;;;;5037996;28;20052;-74
2022/01/07 01:11:23;;;;;;;4.05;1.55;;;;;;;;;;5046370;28;20095;-74
2022/01/07 01:13:49;;;;;;;2.88;1.40;;;;;;;;;;5051907;28;20041;-74
2022/01/07 01:16:15;;;;;;;3.47;1.42;;;;;;;;;;5051667;28;20036;-74
2022/01/07 01:18:41;;;;;;;3.70;1.63;;;;;;;;;;5055750;28;20394;-74
2022/01/07 01:21:07;;;;;;;4.10;1.67;;;;;;;;;;5055810;28;20028;-74
2022/01/07 01:23:33;;;;;;;3.33;1.73;;;;;;;;;;5055513;28;20112;-74
2022/01/07 01:25:59;;;;;;;3.70;1.80;;;;;;;;;;5056293;28;20048;-74
2022/01/07 01:28:25;;;;;;;2.90;1.52;;;;;;;;;;5055579;28;20055;-74
2022/01/07 01:30:52;;;;;;;5.40;2.30;;;;;;;;;;5055939;28;20021;-74
2022/01/07 01:33:18;;;;;;;3.05;1.48;;;;;;;;;;5055897;28;20029;-74
2022/01/07 01:35:44;;;;;;;3.10;1.60;;;;;;;;;;5055349;28;20021;-74
2022/01/07 01:38:10;;;;;;;5.18;1.92;;;;;;;;;;5054045;28;20025;-74
2022/01/07 01:40:36;;;;;;;5.25;2.15;;;;;;;;;;5053876;28;20048;-74
2022/01/07 01:43:03;;;;;;;4.55;1.77;;;;;;;;;;5052796;28;20025;-74
2022/01/07 01:45:29;;;;;;;3.78;1.55;;;;;;;;;;5075412;28;20495;-74
2022/01/07 01:47:55;;;;;;;3.55;1.60;;;;;;;;;;5075316;28;20471;-74
2022/01/07 01:50:22;;;;;;;4.95;1.45;;;;;;;;;;5066860;28;20044;-74
2022/01/07 01:52:50;;;;;;;3.58;1.58;;;;;;;;;;5055325;28;20040;-74
2022/01/07 01:55:17;;;;;;;3.42;1.65;;;;;;;;;;5054879;28;20520;-74
2022/01/07 01:57:43;;;;;;;3.17;1.50;;;;;;;;;;5055661;28;20112;-74
2022/01/07 02:00:10;;;;;;;4.25;1.63;;;;;;;;;;5054018;28;20025;-74
2022/01/07 02:02:36;;;;;;;3.78;1.35;;;;;;;;;;5055231;28;20020;-74
2022/01/07 02:05:03;;;;;;;2.35;1.17;;;;;;;;;;5048411;28;20085;-74
2022/01/07 02:07:29;;;;;;;3.88;1.58;;;;;;;;;;5044636;28;20037;-74
2022/01/07 02:09:55;;;;;;;4.38;1.70;;;;;;;;;;5043794;28;20036;-74
2022/01/07 02:12:22;;;;;;;3.90;1.48;;;;;;;;;;5034796;28;20030;-74
2022/01/07 02:14:52;;;;;;;3.75;1.70;;;;;;;;;;5053736;28;20028;-74
2022/01/07 02:17:19;;;;;;;4.15;1.50;;;;;;;;;;5073435;28;20545;-74
2022/01/07 02:19:45;;;;;;;2.92;1.30;;;;;;;;;;5074608;28;20042;-74
2022/01/07 02:22:13;;;;;;;5.40;1.50;;;;;;;;;;5069431;28;20092;-74
2022/01/07 02:24:39;;;;;;;3.58;1.45;;;;;;;;;;5054936;28;20445;-74
2022/01/07 02:27:07;;;;;;;2.83;1.70;;;;;;;;;;5054279;28;20116;-74
2022/01/07 02:29:33;;;;;;;2.58;1.17;;;;;;;;;;5054004;28;20524;-74
2022/01/07 02:31:59;;;;;;;2.20;1.13;;;;;;;;;;5054440;28;20029;-74
2022/01/07 02:34:25;;;;;;;3.17;1.30;;;;;;;;;;5054447;28;20492;-74
2022/01/07 02:36:51;;;;;;;3.00;1.27;;;;;;;;;;5054714;28;20029;-74
2022/01/07 02:39:17;;;;;;;3.35;1.38;;;;;;;;;;5048698;28;20104;-74
2022/01/07 02:41:44;;;;;;;3.80;1.60;;;;;;;;;;5044883;28;20461;-74
2022/01/07 02:44:10;;;;;;;2.65;1.20;;;;;;;;;;5054314;28;20100;-74
2022/01/07 02:46:36;;;;;;;2.80;1.20;;;;;;;;;;5055453;28;20112;-74
2022/01/07 02:49:13;;;;;;;2.15;0.98;;;;;;;;;;5074144;28;20563;-74
2022/01/07 02:51:39;;;;;;;2.33;1.20;;;;;;;;;;5054860;28;20037;-74
2022/01/07 02:54:06;;;;;;;5.22;1.23;;;;;;;;;;5054484;28;20032;-74
2022/01/07 02:56:32;;;;;;;4.93;1.60;;;;;;;;;;5053865;28;20154;-74
2022/01/07 02:58:58;;;;;;;2.80;1.38;;;;;;;;;;5054124;28;20532;-74
2022/01/07 03:01:24;;;;;;;3.63;1.20;;;;;;;;;;5053935;28;20499;-74
2022/01/07 03:03:50;;;;;;;3.85;1.35;;;;;;;;;;5054421;28;20472;-74
2022/01/07 03:06:16;;;;;;;4.82;1.73;;;;;;;;;;5054248;28;20091;-74
2022/01/07 03:08:46;;;;;;;4.65;1.33;;;;;;;;;;5053979;28;20502;-74
2022/01/07 03:11:12;;;;;;;1.70;0.82;;;;;;;;;;5053420;28;20035;-74
2022/01/07 03:13:38;;;;;;;4.15;1.42;;;;;;;;;;5046364;28;20030;-74
2022/01/07 03:16:04;;;;;;;3.10;1.45;;;;;;;;;;5033845;28;20079;-74
2022/01/07 03:18:30;;;;;;;3.30;1.60;;;;;;;;;;5033874;28;20022;-74
2022/01/07 03:20:58;;;;;;;3.72;1.30;;;;;;;;;;5071492;28;20025;-74
2022/01/07 03:23:25;;;;;;;5.45;1.20;;;;;;;;;;5073638;28;20444;-74
2022/01/07 03:25:51;;;;;;;2.08;1.20;;;;;;;;;;5073336;28;20056;-74
2022/01/07 03:28:17;;;;;;;3.65;1.35;;;;;;;;;;5073238;28;20032;-74
2022/01/07 03:30:43;;;;;;;1.95;0.95;;;;;;;;;;5072933;28;20344;-74
2022/01/07 03:33:10;;;;;;;2.08;1.00;;;;;;;;;;5073552;28;20024;-74
2022/01/07 03:35:36;;;;;;;2.45;1.38;;;;;;;;;;5073212;28;20029;-74
2022/01/07 03:38:02;;;;;;;2.42;1.20;;;;;;;;;;5073202;28;20028;-74
2022/01/07 03:40:29;;;;;;;2.78;1.33;;;;;;;;;;5071494;28;20024;-74
2022/01/07 03:42:55;;;;;;;3.10;1.38;;;;;;;;;;5053142;28;20075;-74
2022/01/07 03:45:21;;;;;;;2.08;1.02;;;;;;;;;;5053111;28;20040;-74
2022/01/07 03:47:48;;;;;;;3.35;1.27;;;;;;;;;;5053063;28;20025;-74
2022/01/07 03:50:16;;;;;;;3.17;1.10;;;;;;;;;;5045793;28;20051;-74
2022/01/07 03:52:42;;;;;;;4.43;1.40;;;;;;;;;;5063609;28;20106;-74
2022/01/07 03:55:10;;;;;;;3.13;1.50;;;;;;;;;;5072528;28;20044;-74
2022/01/07 03:57:36;;;;;;;3.70;1.65;;;;;;;;;;5071545;28;20070;-74
2022/01/07 04:00:04;;;;;;;3.30;1.65;;;;;;;;;;5072637;28;20027;-74
2022/01/07 04:02:30;;;;;;;4.70;1.70;;;;;;;;;;5072743;28;20071;-74
2022/01/07 04:04:57;;;;;;;3.75;1.50;;;;;;;;;;5072914;28;20035;-74
2022/01/07 04:07:23;;;;;;;2.65;1.30;;;;;;;;;;5072775;28;20104;-74
2022/01/07 04:09:49;;;;;;;2.85;1.77;;;;;;;;;;5073081;28;20051;-74
2022/01/07 04:12:15;;;;;;;5.45;1.38;;;;;;;;;;5072226;28;20099;-74
2022/01/07 04:14:41;;;;;;;3.35;1.55;;;;;;;;;;5056714;28;20025;-74
2022/01/07 04:17:07;;;;;;;2.55;1.30;;;;;;;;;;5051187;28;20025;-74
2022/01/07 04:19:34;;;;;;;2.63;1.30;;;;;;;;;;5052788;28;20021;-74
2022/01/07 04:22:00;;;;;;;2.75;1.40;;;;;;;;;;5052316;28;20021;-74
2022/01/07 04:24:26;;;;;;;3.03;1.50;;;;;;;;;;5063439;28;20024;-74
2022/01/07 04:26:52;;;;;;;4.43;1.20;;;;;;;;;;5063649;28;20025;-74
2022/01/07 04:29:18;;;;;;;2.58;1.27;;;;;;;;;;5052319;28;20553;-74
2022/01/07 04:31:44;;;;;;;3.38;1.58;;;;;;;;;;5052365;28;20391;-74
2022/01/07 04:34:10;;;;;;;2.63;1.48;;;;;;;;;;5052334;28;20492;-74
2022/01/07 04:36:37;;;;;;;3.70;1.63;;;;;;;;;;5052384;28;20435;-74
2022/01/07 04:39:03;;;;;;;4.00;1.30;;;;;;;;;;5052226;28;20029;-74
2022/01/07 04:41:29;;;;;;;3.42;1.10;;;;;;;;;;5043093;28;20056;-74
2022/01/07 04:43:55;;;;;;;3.78;1.67;;;;;;;;;;5031202;28;20025;-74
2022/01/07 04:46:21;;;;;;;4.85;1.40;;;;;;;;;;5032348;28;20057;-74
2022/01/07 04:48:47;;;;;;;3.80;1.45;;;;;;;;;;5032433;28;20033;-74
2022/01/07 04:51:14;;;;;;;2.13;1.23;;;;;;;;;;5046094;28;20253;-73
2022/01/07 04:53:40;;;;;;;3.10;1.30;;;;;;;;;;5051984;28;20040;-74
2022/01/07 04:56:06;;;;;;;3.35;1.48;;;;;;;;;;5058273;28;20048;-74
2022/01/07 04:58:32;;;;;;;4.18;1.08;;;;;;;;;;5070783;28;20029;-74
2022/01/07 05:00:58;;;;;;;3.17;1.70;;;;;;;;;;5071943;28;20028;-74
2022/01/07 05:03:24;;;;;;;5.28;1.55;;;;;;;;;;5072195;28;20466;-74
2022/01/07 05:06:01;;;;;;;2.25;1.20;;;;;;;;;;5071945;28;20433;-74
2022/01/07 05:08:27;;;;;;;3.13;1.40;;;;;;;;;;5070577;28;20025;-74
2022/01/07 05:10:53;;;;;;;3.15;1.55;;;;;;;;;;5071994;28;20025;-74
2022/01/07 05:13:20;;;;;;;4.22;1.65;;;;;;;;;;5066228;28;20021;-74
2022/01/07 05:15:46;;;;;;;4.25;1.45;;;;;;;;;;5051914;28;20028;-74
2022/01/07 05:18:12;;;;;;;2.60;1.58;;;;;;;;;;5051860;28;20021;-74
2022/01/07 05:20:38;;;;;;;2.83;1.30;;;;;;;;;;5050651;28;20027;-74
2022/01/07 05:23:04;;;;;;;4.65;1.70;;;;;;;;;;5050193;28;20021;-74
2022/01/07 05:25:34;;;;;;;3.13;1.20;;;;;;;;;;5050649;28;20021;-74
2022/01/07 05:28:00;;;;;;;2.60;1.20;;;;;;;;;;5054375;28;20111;-74
2022/01/07 05:30:26;;;;;;;2.40;1.38;;;;;;;;;;5071980;28;20031;-74
2022/01/07 05:32:52;;;;;;;3.50;1.33;;;;;;;;;;5071609;28;20544;-74
2022/01/07 05:35:19;;;;;;;5.32;1.70;;;;;;;;;;5071660;28;20523;-74
2022/01/07 05:37:45;;;;;;;2.65;1.40;;;;;;;;;;5071666;28;20410;-74
2022/01/07 05:40:11;;;;;;;3.25;1.30;;;;;;;;;;5071692;28;20021;-74
2022/01/07 05:42:37;;;;;;;2.72;1.10;;;;;;;;;;5053024;28;20025;-74
2022/01/07 05:45:03;;;;;;;3.70;1.55;;;;;;;;;;5051630;28;20021;-74
2022/01/07 05:47:29;;;;;;;3.63;1.42;;;;;;;;;;5050297;28;20032;-74
2022/01/07 05:49:55;;;;;;;3.72;1.60;;;;;;;;;;5046755;28;20022;-74
2022/01/07 05:52:21;;;;;;;2.92;1.60;;;;;;;;;;5031691;28;20404;-74
2022/01/07 05:54:48;;;;;;;3.13;1.30;;;;;;;;;;5031412;28;20092;-74
2022/01/07 05:57:14;;;;;;;3.97;1.55;;;;;;;;;;5031492;28;20046;-74
2022/01/07 05:59:40;;;;;;;4.07;1.48;;;;;;;;;;5031564;28;20017;-74
2022/01/07 06:02:06;;;;;;;3.17;1.10;;;;;;;;;;5051804;28;20075;-74
2022/01/07 06:04:32;;;;;;;2.55;1.48;;;;;;;;;;5053561;28;20507;-74
2022/01/07 06:06:58;;;;;;;3.45;1.65;;;;;;;;;;5053986;28;20117;-74
2022/01/07 06:09:25;;;;;;;4.68;1.50;;;;;;;;;;5055237;28;20058;-74
2022/01/07 06:11:51;;;;;;;3.25;1.38;;;;;;;;;;5054821;28;20039;-74
2022/01/07 06:14:17;;;;;;;3.95;1.60;;;;;;;;;;5042078;28;20029;-74
2022/01/07 06:16:43;;;;;;;4.50;1.40;;;;;;;;;;5033467;28;20480;-74
2022/01/07 06:19:09;;;;;;;4.40;1.90;;;;;;;;;;5034636;28;20025;-74
2022/01/07 06:21:35;;;;;;;3.10;1.58;;;;;;;;;;5034992;28;20033;-74
2022/01/07 06:24:01;;;;;;;3.25;1.58;;;;;;;;;;5032952;28;20022;-74
2022/01/07 06:26:27;;;;;;;5.43;2.05;;;;;;;;;;5034549;28;20025;-74
2022/01/07 06:28:53;;;;;;;5.32;1.75;;;;;;;;;;5034208;28;20079;-74
2022/01/07 06:31:19;;;;;;;3.92;2.05;;;;;;;;;;5034411;28;20404;-74
2022/01/07 06:33:45;;;;;;;4.65;1.60;;;;;;;;;;5050236;28;20029;-74
2022/01/07 06:36:11;;;;;;;4.13;1.77;;;;;;;;;;5054458;28;20547;-74
2022/01/07 06:38:37;;;;;;;4.72;1.80;;;;;;;;;;5054089;28;20017;-74
2022/01/07 06:41:04;;;;;;;4.60;1.70;;;;;;;;;;5048823;28;20028;-74
2022/01/07 06:43:30;;;;;;;3.72;1.80;;;;;;;;;;5033933;28;20036;-74
2022/01/07 06:45:56;;;;;;;4.63;2.22;;;;;;;;;;5034119;28;20120;-74
2022/01/07 06:48:22;;;;;;;3.25;1.48;;;;;;;;;;5034511;28;20021;-74
2022/01/07 06:50:48;;;;;;;4.45;1.55;;;;;;;;;;5034017;28;20032;-74
2022/01/07 06:53:14;;;;;;;6.60;2.08;;;;;;;;;;5033790;28;20034;-74
2022/01/07 06:55:40;;;;;;;4.80;1.70;;;;;;;;;;5032606;28;20049;-74
2022/01/07 06:58:07;;;;;;;3.70;1.75;;;;;;;;;;5032909;28;20032;-74
2022/01/07 07:00:33;;;;;;;5.35;1.60;;;;;;;;;;5034644;28;20144;-74
2022/01/07 07:02:59;;;;;;;4.45;1.73;;;;;;;;;;5033533;28;20029;-74
2022/01/07 07:05:25;;;;;;;4.00;1.80;;;;;;;;;;5052824;28;20056;-74
2022/01/07 07:07:52;;;;;;;3.72;1.60;;;;;;;;;;5074174;28;20036;-74
2022/01/07 07:10:18;;;;;;;3.25;1.45;;;;;;;;;;5073467;28;20051;-74
2022/01/07 07:12:44;;;;;;;2.60;1.50;;;;;;;;;;5073901;28;20415;-74
2022/01/07 07:15:10;;;;;;;3.65;1.60;;;;;;;;;;5053464;28;20119;-74
2022/01/07 07:17:36;;;;;;;3.63;1.50;;;;;;;;;;5053908;28;20411;-74
2022/01/07 07:20:03;;;;;;;3.78;1.65;;;;;;;;;;5053871;28;20024;-74
2022/01/07 07:22:30;;;;;;;5.80;1.65;;;;;;;;;;5053851;28;20033;-74
2022/01/07 07:24:56;;;;;;;3.95;1.33;;;;;;;;;;5053628;28;20480;-74
2022/01/07 07:27:22;;;;;;;2.75;1.33;;;;;;;;;;5053706;28;20021;-74
2022/01/07 07:29:48;;;;;;;3.97;1.52;;;;;;;;;;5053533;28;20025;-74
2022/01/07 07:32:21;;;;;;;4.82;1.92;;;;;;;;;;5054008;28;20021;-74
2022/01/07 07:37:22;;;;;;;4.15;1.58;;;;;;;;;;5060310;28;20109;-74
2022/01/07 07:39:48;;;;;;;3.25;1.40;;;;;;;;;;5072777;28;20021;-74
2022/01/07 07:42:14;;;;;;;2.75;1.42;;;;;;;;;;5058244;28;20028;-74
2022/01/07 07:44:40;;;;;;;2.40;1.30;;;;;;;;;;5052603;28;20021;-74
2022/01/07 07:47:06;;;;;;;2.58;1.35;;;;;;;;;;5053452;28;20021;-74
2022/01/07 07:49:32;;;;;;;3.38;1.25;;;;;;;;;;5051743;28;20029;-74
2022/01/07 07:51:58;;;;;;;3.22;1.42;;;;;;;;;;5031930;28;20033;-74
2022/01/07 07:54:24;;;;;;;1.40;1.10;;;;;;;;;;5033088;28;20048;-74
2022/01/07 07:56:51;;;;;;;5.65;1.90;;;;;;;;;;5032577;28;20045;-74
2022/01/07 07:59:17;;;;;;;3.58;1.42;;;;;;;;;;5049749;28;20036;-74
2022/01/07 08:01:43;;;;;;;4.75;1.48;;;;;;;;;;5049059;28;20018;-74
2022/01/07 08:04:11;;;;;;;3.97;1.45;;;;;;;;;;5034435;28;20037;-74
2022/01/07 08:06:37;;;;;;;5.00;1.52;;;;;;;;;;5034736;28;20037;-74
2022/01/07 08:09:03;;;;;;;4.30;1.63;;;;;;;;;;5041672;28;20056;-74
2022/01/07 08:11:37;;;;;;;5.43;1.60;;;;;;;;;;5044038;28;20033;-74
2022/01/07 08:16:49;;;;;;;3.45;1.40;;;;;;;;;;5032041;28;20634;-74
2022/01/07 08:19:15;;;;;;;5.28;1.70;;;;;;;;;;5043236;28;20427;-74
2022/01/07 08:21:41;;;;;;;2.20;1.30;;;;;;;;;;5038499;28;20428;-74
2022/01/07 08:24:07;;;;;;;3.60;1.30;;;;;;;;;;5030547;28;20021;-74
2022/01/07 08:26:33;;;;;;;3.15;1.67;;;;;;;;;;5040519;28;20029;-74
2022/01/07 08:29:00;;;;;;;3.97;1.90;;;;;;;;;;5038753;28;20037;-74
2022/01/07 08:36:46;;;;;;;2.88;1.30;;;;;;;;;;5034657;28;20077;-74
2022/01/07 08:39:12;;;;;;;4.65;1.80;;;;;;;;;;5036137;28;20049;-74
2022/01/07 08:41:39;;;;;;;5.43;1.65;;;;;;;;;;5035796;28;20025;-73
2022/01/07 08:44:06;;;;;;;3.08;1.35;;;;;;;;;;5037462;28;20044;-74
2022/01/07 08:46:32;;;;;;;2.60;1.27;;;;;;;;;;5042558;28;20029;-74
2022/01/07 08:48:59;;;;;;;2.45;1.35;;;;;;;;;;5036615;28;20392;-74
2022/01/07 08:51:26;;;;;;;3.47;1.55;;;;;;;;;;5032222;28;20045;-74
2022/01/07 08:53:52;;;;;;;2.30;1.40;;;;;;;;;;5033217;28;20112;-74
2022/01/07 08:56:23;;;;;;;3.45;1.30;;;;;;;;;;5041115;28;20773;-74
2022/01/07 08:58:49;;;;;;;4.38;1.35;;;;;;;;;;5034652;28;20029;-74
2022/01/07 09:01:15;;;;;;;4.25;1.42;;;;;;;;;;5032080;28;20033;-74
2022/01/07 09:03:41;;;;;;;4.03;1.33;;;;;;;;;;5034469;28;20029;-74
2022/01/07 09:06:07;;;;;;;3.22;1.30;;;;;;;;;;5034174;28;20044;-74
2022/01/07 09:08:34;;;;;;;4.13;1.77;;;;;;;;;;5033560;28;20424;-74
2022/01/07 09:11:00;;;;;;;3.70;1.25;;;;;;;;;;5044964;28;20407;-74
2022/01/07 09:13:26;;;;;;;3.65;1.45;;;;;;;;;;5041421;28;20124;-74
2022/01/07 09:15:53;;;;;;;4.28;1.40;;;;;;;;;;5034742;28;20071;-74
2022/01/07 09:18:20;;;;;;;4.75;1.65;;;;;;;;;;5032374;28;20530;-74
2022/01/07 09:20:47;;;;;;;6.13;1.75;;;;;;;;;;5048470;28;20120;-74
2022/01/07 09:23:13;;;;;;;3.42;1.58;;;;;;;;;;5049223;28;20029;-74
2022/01/07 09:25:40;;;;;;;2.53;1.48;;;;;;;;;;5049106;28;20059;-74
2022/01/07 09:28:07;;;;;;;1.80;1.13;;;;;;;;;;5045881;28;20036;-74
2022/01/07 09:30:33;;;;;;;2.78;1.10;;;;;;;;;;5036405;28;20033;-74
2022/01/07 09:32:59;;;;;;;5.38;1.60;;;;;;;;;;5041960;28;20033;-74
2022/01/07 09:35:26;;;;;;;3.95;1.70;;;;;;;;;;5029877;28;20091;-74
2022/01/07 09:37:53;;;;;;;3.33;1.60;;;;;;;;;;5042899;28;20079;-74
2022/01/07 09:40:19;;;;;;;5.05;2.08;;;;;;;;;;5050739;28;20043;-74
2022/01/07 09:42:54;;;;;;;2.83;1.33;;;;;;;;;;5037050;28;20028;-74
2022/01/07 09:45:21;;;;;;;3.47;1.65;;;;;;;;;;5036481;28;20057;-74
2022/01/07 09:47:47;;;;;;;4.20;1.60;;;;;;;;;;5051785;28;20037;-74
2022/01/07 09:50:13;;;;;;;3.83;1.63;;;;;;;;;;5043212;28;20551;-74
2022/01/07 09:52:39;;;;;;;2.97;1.35;;;;;;;;;;5053420;28;20037;-74
2022/01/07 09:55:06;;;;;;;6.63;1.58;;;;;;;;;;5071839;28;20036;-74
2022/01/07 09:57:32;;;;;;;1.95;1.17;;;;;;;;;;5064305;28;20030;-74
2022/01/07 09:59:58;;;;;;;2.80;1.27;;;;;;;;;;5042924;28;20120;-74
2022/01/07 10:02:25;;;;;;;2.53;1.30;;;;;;;;;;5047119;28;20025;-74
2022/01/07 10:04:51;;;;;;;2.00;1.25;;;;;;;;;;5047245;28;20023;-74
2022/01/07 10:07:22;;;;;;;3.10;1.20;;;;;;;;;;5034082;28;20042;-74
2022/01/07 10:09:59;;;;;;;3.60;1.83;;;;;;;;;;5047664;28;20125;-74
2022/01/07 10:12:26;;;;;;;3.22;1.25;;;;;;;;;;5058198;28;20021;-74
2022/01/07 10:15:11;;;;;;;2.58;1.60;;;;;;;;;;5052268;28;20101;-74
2022/01/07 10:17:37;;;;;;;2.13;1.10;;;;;;;;;;5054511;28;20037;-74
2022/01/07 10:20:04;;;;;;;2.88;1.30;;;;;;;;;;5053966;28;20029;-74
2022/01/07 10:22:47;;;;;;;2.50;1.17;;;;;;;;;;5048174;28;20020;-74
2022/01/07 10:25:19;;;;;;;6.60;1.85;;;;;;;;;;5034971;28;20033;-74
2022/01/07 10:27:45;;;;;;;4.47;1.27;;;;;;;;;;5041602;28;20041;-74
2022/01/07 10:30:16;;;;;;;2.88;1.40;;;;;;;;;;5040450;28;20452;-74
2022/01/07 10:32:42;;;;;;;3.00;1.23;;;;;;;;;;5049609;28;20492;-74
2022/01/07 10:35:16;;;;;;;6.22;1.70;;;;;;;;;;5043451;28;20375;-74
2022/01/07 10:37:57;;;;;;;4.13;1.60;;;;;;;;;;5049795;28;20033;-74
2022/01/07 10:40:25;;;;;;;2.92;1.38;;;;;;;;;;5049522;28;20021;-74
2022/01/07 10:42:53;;;;;;;3.63;1.40;;;;;;;;;;5042493;28;20039;-74
2022/01/07 10:45:19;;;;;;;4.78;1.48;;;;;;;;;;5040301;28;20041;-74
2022/01/07 10:47:52;;;;;;;4.20;1.70;;;;;;;;;;5049773;28;20059;-74
2022/01/07 10:50:19;;;;;;;3.58;1.02;;;;;;;;;;5040753;28;20106;-74
2022/01/07 10:52:45;;;;;;;5.00;1.88;;;;;;;;;;5044746;28;20029;-74
2022/01/07 10:55:12;;;;;;;3.75;1.30;;;;;;;;;;5045941;28;20499;-74
2022/01/07 10:57:41;;;;;;;3.47;1.10;;;;;;;;;;5045971;28;20032;-74
2022/01/07 11:00:08;;;;;;;3.13;1.23;;;;;;;;;;5043493;28;20476;-74
2022/01/07 11:02:35;;;;;;;4.25;1.60;;;;;;;;;;5035925;28;20056;-74
2022/01/07 11:05:01;;;;;;;4.32;1.55;;;;;;;;;;5048195;28;20150;-74
2022/01/07 11:07:30;;;;;;;4.43;1.33;;;;;;;;;;5051047;28;20029;-74
2022/01/07 11:09:57;;;;;;;4.05;1.67;;;;;;;;;;5050232;28;20488;-74
2022/01/07 11:12:25;;;;;;;6.47;1.50;;;;;;;;;;5050736;28;20455;-74
2022/01/07 11:14:51;;;;;;;3.08;1.30;;;;;;;;;;5040423;28;20021;-74
2022/01/07 11:17:21;;;;;;;4.32;1.60;;;;;;;;;;5032998;28;20121;-74
2022/01/07 11:19:51;;;;;;;3.88;1.50;;;;;;;;;;5047369;28;20059;-74
2022/01/07 11:22:17;;;;;;;3.90;1.88;;;;;;;;;;5051283;28;20025;-74
2022/01/07 11:24:45;;;;;;;4.05;1.30;;;;;;;;;;5051160;28;20037;-74
2022/01/07 11:27:15;;;;;;;2.83;1.50;;;;;;;;;;5047813;28;20040;-74
2022/01/07 11:30:03;;;;;;;3.47;1.30;;;;;;;;;;5033831;28;20499;-74
2022/01/07 11:32:32;;;;;;;2.35;1.30;;;;;;;;;;5048446;28;20076;-74
2022/01/07 11:35:20;;;;;;;3.95;1.08;;;;;;;;;;5043107;28;20025;-74
2022/01/07 11:37:53;;;;;;;3.63;1.35;;;;;;;;;;5035302;28;20459;-74
2022/01/07 11:40:31;;;;;;;4.18;1.20;;;;;;;;;;5044304;28;20516;-74
2022/01/07 11:42:58;;;;;;;2.70;1.13;;;;;;;;;;5035814;28;20021;-74
2022/01/07 11:45:28;;;;;;;3.33;1.30;;;;;;;;;;5036774;28;20024;-74
2022/01/07 11:47:55;;;;;;;2.33;1.27;;;;;;;;;;5032235;28;20040;-74
2022/01/07 11:50:24;;;;;;;6.80;1.20;;;;;;;;;;5043133;28;20473;-74
2022/01/07 11:52:58;;;;;;;2.47;1.08;;;;;;;;;;5037237;28;20036;-74
2022/01/07 11:55:26;;;;;;;2.67;1.17;;;;;;;;;;5042074;28;20080;-74
2022/01/07 11:58:22;;;;;;;3.10;1.27;;;;;;;;;;5050476;28;20101;-74
2022/01/07 12:00:59;;;;;;;3.92;1.48;;;;;;;;;;5034678;28;20473;-74
2022/01/07 12:03:34;;;;;;;3.30;1.30;;;;;;;;;;5042492;28;20025;-74
2022/01/07 12:06:19;;;;;;;2.58;0.90;;;;;;;;;;5043618;28;20030;-74
2022/01/07 12:09:13;;;;;;;2.03;1.10;;;;;;;;;;5041538;28;20384;-74
2022/01/07 12:11:39;;;;;;;;;;;;;;;;;;5035299;28;20048;-75
2022/01/07 12:14:10;;;;;;;6.13;1.25;;;;;;;;;;5046090;28;20026;-74
2022/01/07 12:16:37;;;;;;;2.20;1.23;;;;;;;;;;5050776;28;20392;-74
2022/01/07 12:19:32;;;;;;;3.22;1.20;;;;;;;;;;5049077;28;20113;-74
2022/01/07 12:21:58;;;;;;;4.28;1.30;;;;;;;;;;5048787;28;20021;-74
2022/01/07 12:24:25;;;;;;;2.63;1.10;;;;;;;;;;5038009;28;20480;-74
2022/01/07 12:27:04;;;;;;;1.60;0.93;;;;;;;;;;5043225;28;20108;-74
2022/01/07 12:29:31;;;;;;;4.72;0.95;;;;;;;;;;5041991;28;20117;-74
2022/01/07 12:31:58;;;;;;;3.65;0.98;;;;;;;;;;5031777;28;20040;-74
2022/01/07 12:34:25;;;;;;;3.78;1.25;;;;;;;;;;5039703;28;20025;-74
2022/01/07 12:37:11;;;;;;;1.70;0.90;;;;;;;;;;5035708;28;20017;-74
2022/01/07 12:39:39;;;;;;;2.03;1.00;;;;;;;;;;5036435;28;20037;-74
2022/01/07 12:42:06;;;;;;;1.88;1.10;;;;;;;;;;5039779;28;20064;-74
2022/01/07 12:44:52;;;;;;;1.75;0.77;;;;;;;;;;5044025;28;20025;-74
2022/01/07 12:47:19;;;;;;;2.47;1.00;;;;;;;;;;5035335;28;20063;-74
2022/01/07 12:49:46;;;;;;;4.05;0.85;;;;;;;;;;5040686;28;20025;-74
2022/01/07 12:52:19;;;;;;;1.92;1.00;;;;;;;;;;5038709;28;20141;-74
2022/01/07 12:54:55;;;;;;;1.70;0.98;;;;;;;;;;5043897;28;20041;-74
2022/01/07 12:57:30;;;;;;;3.00;1.02;;;;;;;;;;5038987;28;20045;-74
2022/01/07 13:00:17;;;;;;;2.72;1.20;;;;;;;;;;5038571;28;20032;-74
2022/01/07 13:02:47;;;;;;;3.03;0.95;;;;;;;;;;5033007;28;20030;-74
2022/01/07 13:05:15;;;;;;;2.22;1.20;;;;;;;;;;5044256;28;20036;-74
2022/01/07 13:07:45;;;;;;;3.03;1.20;;;;;;;;;;5038756;28;20022;-74
2022/01/07 13:10:12;;;;;;;2.08;1.30;;;;;;;;;;5043807;28;20025;-74
2022/01/07 13:12:39;;;;;;;2.13;1.13;;;;;;;;;;5043982;28;20029;-74
2022/01/07 13:15:06;;;;;;;2.47;1.40;;;;;;;;;;5043551;28;20039;-74
2022/01/07 13:17:32;;;;;;;1.77;1.10;;;;;;;;;;5042850;28;20029;-74
2022/01/07 13:19:59;;;;;;;2.88;1.55;;;;;;;;;;5046202;28;20033;-74
2022/01/07 13:22:28;;;;;;;2.38;1.27;;;;;;;;;;5034572;28;20026;-74
2022/01/07 13:24:54;;;;;;;3.05;1.40;;;;;;;;;;5033857;28;20585;-74
2022/01/07 13:27:20;;;;;;;2.30;1.15;;;;;;;;;;5043944;28;20056;-74
2022/01/07 13:29:51;;;;;;;2.28;1.10;;;;;;;;;;5039331;28;20100;-74
2022/01/07 13:32:21;;;;;;;2.65;1.40;;;;;;;;;;5042321;28;20167;-74
2022/01/07 13:34:47;;;;;;;2.97;1.60;;;;;;;;;;5040160;28;20033;-74
2022/01/07 13:37:15;;;;;;;2.78;1.30;;;;;;;;;;5043315;28;20029;-74
2022/01/07 13:39:46;;;;;;;3.97;1.30;;;;;;;;;;5044572;28;20029;-74
2022/01/07 13:42:13;;;;;;;3.70;1.13;;;;;;;;;;5037808;28;20492;-74
2022/01/07 13:44:50;;;;;;;1.90;1.48;;;;;;;;;;5044401;28;20040;-74
2022/01/07 13:47:21;;;;;;;3.40;1.52;;;;;;;;;;5041604;28;20037;-74
2022/01/07 13:49:47;;;;;;;2.63;1.40;;;;;;;;;;5044763;28;20546;-74
2022/01/07 13:52:13;;;;;;;2.47;1.13;;;;;;;;;;5044301;28;20037;-74
2022/01/07 13:54:45;;;;;;;2.22;1.17;;;;;;;;;;5034504;28;20033;-74
2022/01/07 13:57:13;;;;;;;3.42;1.40;;;;;;;;;;5041767;28;20036;-74
2022/01/07 13:59:43;;;;;;;2.55;1.40;;;;;;;;;;5038990;28;20203;-74
2022/01/07 14:02:09;;;;;;;2.47;1.33;;;;;;;;;;5043037;28;20540;-74
2022/01/07 14:04:47;;;;;;;2.92;1.35;;;;;;;;;;5039467;28;20033;-74
2022/01/07 14:07:24;;;;;;;1.42;1.20;;;;;;;;;;5049336;28;20033;-74
2022/01/07 14:10:09;;;;;;;1.60;1.25;;;;;;;;;;5035283;28;20500;-74
2022/01/07 14:12:36;;;;;;;2.65;1.40;;;;;;;;;;5043410;28;20036;-74
2022/01/07 14:15:04;;;;;;;2.38;1.08;;;;;;;;;;5038861;28;20036;-74
2022/01/07 14:17:30;;;;;;;2.55;1.30;;;;;;;;;;5037064;28;20115;-74
2022/01/07 14:19:57;;;;;;;2.08;1.05;;;;;;;;;;5039958;28;20030;-74
2022/01/07 14:22:23;;;;;;;2.20;1.40;;;;;;;;;;5035800;28;20055;-74
2022/01/07 14:24:49;;;;;;;8.68;1.23;;;;;;;;;;5038018;28;20393;-74
2022/01/07 14:27:27;;;;;;;3.05;1.20;;;;;;;;;;5048503;28;20060;-74
2022/01/07 14:29:54;;;;;;;3.10;1.30;;;;;;;;;;5031264;28;20057;-74
2022/01/07 14:32:21;;;;;;;2.45;0.88;;;;;;;;;;5040074;28;20495;-74
2022/01/07 14:34:47;;;;;;;4.80;1.48;;;;;;;;;;5037975;28;20495;-74
2022/01/07 14:37:14;;;;;;;1.40;1.10;;;;;;;;;;5039597;28;20033;-74
2022/01/07 14:39:41;;;;;;;1.27;0.90;;;;;;;;;;5037359;28;20068;-74
2022/01/07 14:42:07;;;;;;;1.60;0.82;;;;;;;;;;5046319;28;20029;-74
2022/01/07 14:44:33;;;;;;;1.10;0.70;;;;;;;;;;5048794;28;20079;-74
2022/01/07 14:46:59;;;;;;;2.55;1.05;;;;;;;;;;5052039;28;20037;-74
2022/01/07 14:49:25;;;;;;;1.95;1.05;;;;;;;;;;5051671;28;20029;-74
2022/01/07 14:51:51;;;;;;;2.10;1.20;;;;;;;;;;5046461;28;20381;-74
2022/01/07 14:54:17;;;;;;;2.10;1.10;;;;;;;;;;5050126;28;20029;-74
2022/01/07 14:56:43;;;;;;;2.55;1.02;;;;;;;;;;5046607;28;20052;-74